Time,TemperatureF,DewpointF,PressureIn,WindDirection,WindDirectionDegrees,WindSpeedMPH,WindSpeedGustMPH,Humidity,HourlyPrecipIn,Conditions,Clouds,dailyrainin,SoftwareType,DateUTC
2013-04-23 00:12:00,50.1,44.8,29.98,WNW,293,0.0,2.9,82,0.00,,,0.00,WUHU216HW,2013-04-23 04:12:00,
2013-04-23 00:18:00,50.0,44.6,29.98,ENE,68,0.0,3.5,82,0.00,,,0.00,WUHU216HW,2013-04-23 04:18:00,
2013-04-23 00:23:00,50.0,44.6,29.98,NW,315,0.0,4.4,82,0.00,,,0.00,WUHU216HW,2013-04-23 04:23:00,
2013-04-23 00:28:00,50.0,44.6,29.98,NNW,338,0.0,4.4,82,0.00,,,0.00,WUHU216HW,2013-04-23 04:28:00,
2013-04-23 00:33:00,49.8,44.4,29.98,West,270,0.0,0.0,82,0.00,,,0.00,WUHU216HW,2013-04-23 04:33:00,
2013-04-23 00:38:00,49.8,44.4,29.98,North,0,0.0,0.0,82,0.00,,,0.00,WUHU216HW,2013-04-23 04:38:00,
2013-04-23 00:43:00,49.6,44.6,29.98,ESE,113,0.0,0.0,83,0.00,,,0.00,WUHU216HW,2013-04-23 04:43:00,
2013-04-23 00:45:00,63.5,51.9,29.79,East,90,0.0,4.2,66,0.00,,,0.00,WUHU216HW,2013-04-23 04:45:00,
2013-04-23 00:46:00,63.5,51.4,29.79,East,90,4.9,4.9,65,0.00,,,0.00,WUHU216HW,2013-04-23 04:46:00,
2013-04-23 00:47:00,63.5,51.4,29.79,ENE,68,1.7,4.9,65,0.00,,,0.00,WUHU216HW,2013-04-23 04:47:00,
2013-04-23 00:48:00,49.6,44.6,29.98,NE,45,0.0,0.0,83,0.00,,,0.00,WUHU216HW,2013-04-23 04:48:00,
2013-04-23 00:49:00,63.6,51.6,29.79,NW,315,0.0,4.9,65,0.00,,,0.00,WUHU216HW,2013-04-23 04:49:00,
2013-04-23 00:51:00,63.6,51.6,29.79,NE,45,0.0,4.9,65,0.00,,,0.00,WUHU216HW,2013-04-23 04:51:00,
2013-04-23 00:52:00,63.6,51.6,29.79,NE,45,0.0,4.9,65,0.00,,,0.00,WUHU216HW,2013-04-23 04:52:00,
2013-04-23 00:53:00,49.6,44.6,29.98,NE,45,0.0,0.0,83,0.00,,,0.00,WUHU216HW,2013-04-23 04:53:00,
2013-04-23 00:54:00,63.6,51.6,29.79,WSW,248,0.0,4.9,65,0.00,,,0.00,WUHU216HW,2013-04-23 04:54:00,
2013-04-23 00:56:00,63.6,51.6,29.79,NNW,338,0.0,4.9,65,0.00,,,0.00,WUHU216HW,2013-04-23 04:56:00,
2013-04-23 00:57:00,63.6,51.6,29.79,NNW,338,0.0,1.7,65,0.00,,,0.00,WUHU216HW,2013-04-23 04:57:00,
2013-04-23 00:58:00,49.6,44.6,29.97,NW,315,0.0,0.4,84,0.00,,,0.00,WUHU216HW,2013-04-23 04:58:00,
2013-04-23 00:59:00,63.6,51.6,29.79,NE,45,0.0,0.0,66,0.00,,,0.00,WUHU216HW,2013-04-23 04:59:00,
2013-04-23 01:01:00,63.6,51.6,29.78,NE,45,0.0,0.0,66,0.00,,,0.00,WUHU216HW,2013-04-23 05:01:00,
2013-04-23 01:02:00,63.6,51.6,29.79,NE,45,0.0,0.0,66,0.00,,,0.00,WUHU216HW,2013-04-23 05:02:00,
2013-04-23 01:03:00,49.6,44.6,29.97,WNW,293,0.0,0.4,84,0.00,,,0.00,WUHU216HW,2013-04-23 05:03:00,
2013-04-23 01:08:00,49.6,44.6,29.96,NNE,23,0.0,0.0,84,0.00,,,0.00,WUHU216HW,2013-04-23 05:08:00,
2013-04-23 01:13:00,49.6,44.6,29.96,NE,45,0.0,0.0,84,0.00,,,0.00,WUHU216HW,2013-04-23 05:13:00,
2013-04-23 01:18:00,49.6,44.9,29.96,ENE,68,0.0,0.0,84,0.00,,,0.00,WUHU216HW,2013-04-23 05:18:00,
2013-04-23 01:23:00,49.6,44.9,29.96,NE,45,0.0,0.0,85,0.00,,,0.00,WUHU216HW,2013-04-23 05:23:00,
2013-04-23 01:28:00,49.4,45.0,29.97,North,0,0.0,0.0,85,0.00,,,0.00,WUHU216HW,2013-04-23 05:28:00,
2013-04-23 01:33:00,49.2,44.9,29.96,NNW,338,0.0,0.0,84,0.00,,,0.00,WUHU216HW,2013-04-23 05:33:00,
2013-04-23 01:38:00,49.1,44.4,29.96,NE,45,0.0,0.0,84,0.00,,,0.00,WUHU216HW,2013-04-23 05:38:00,
2013-04-23 01:43:00,49.1,44.4,29.96,NW,315,0.0,0.0,84,0.00,,,0.00,WUHU216HW,2013-04-23 05:43:00,
2013-04-23 01:48:00,49.1,44.4,29.96,NNE,23,0.0,0.0,85,0.00,,,0.00,WUHU216HW,2013-04-23 05:48:00,
2013-04-23 01:53:00,49.1,44.7,29.96,North,0,4.2,4.2,85,0.00,,,0.00,WUHU216HW,2013-04-23 05:53:00,
2013-04-23 01:58:00,48.9,44.5,29.96,North,0,0.0,4.2,85,0.00,,,0.00,WUHU216HW,2013-04-23 05:58:00,
2013-04-23 02:03:00,48.9,44.5,29.96,East,90,0.0,4.2,85,0.00,,,0.00,WUHU216HW,2013-04-23 06:03:00,
2013-04-23 02:08:00,48.9,44.5,29.96,East,90,0.0,0.0,85,0.00,,,0.00,WUHU216HW,2013-04-23 06:08:00,
2013-04-23 02:13:00,48.9,44.5,29.95,ENE,68,0.0,0.0,85,0.00,,,0.00,WUHU216HW,2013-04-23 06:13:00,
2013-04-23 02:18:00,48.9,44.5,29.95,NNW,338,0.0,0.0,85,0.00,,,0.00,WUHU216HW,2013-04-23 06:18:00,
2013-04-23 02:23:00,48.9,44.5,29.95,ENE,68,0.0,0.0,85,0.00,,,0.00,WUHU216HW,2013-04-23 06:23:00,
2013-04-23 02:28:00,48.9,44.5,29.95,East,90,0.0,0.0,85,0.00,,,0.00,WUHU216HW,2013-04-23 06:28:00,
2013-04-23 02:33:00,48.7,44.3,29.95,East,90,0.0,0.0,85,0.00,,,0.00,WUHU216HW,2013-04-23 06:33:00,
2013-04-23 02:38:00,48.9,44.5,29.95,ENE,68,0.0,0.0,85,0.00,,,0.00,WUHU216HW,2013-04-23 06:38:00,
2013-04-23 02:43:00,48.7,44.3,29.94,East,90,0.0,2.0,85,0.00,,,0.00,WUHU216HW,2013-04-23 06:43:00,
2013-04-23 02:48:00,48.7,44.3,29.94,NE,45,0.0,2.0,85,0.00,,,0.00,WUHU216HW,2013-04-23 06:48:00,
2013-04-23 02:53:00,48.7,44.3,29.94,ESE,113,0.0,2.2,85,0.00,,,0.00,WUHU216HW,2013-04-23 06:53:00,
2013-04-23 02:58:00,48.9,44.5,29.94,NNE,23,1.7,2.2,85,0.00,,,0.00,WUHU216HW,2013-04-23 06:58:00,
2013-04-23 03:03:00,48.9,44.5,29.94,NNW,338,0.0,1.7,84,0.00,,,0.00,WUHU216HW,2013-04-23 07:03:00,
2013-04-23 03:08:00,48.9,44.5,29.94,NE,45,0.0,3.1,84,0.00,,,0.00,WUHU216HW,2013-04-23 07:08:00,
2013-04-23 03:13:00,48.9,44.5,29.94,NNW,338,0.0,3.1,84,0.00,,,0.00,WUHU216HW,2013-04-23 07:13:00,
2013-04-23 03:18:00,48.9,44.5,29.94,NE,45,0.0,0.0,84,0.00,,,0.00,WUHU216HW,2013-04-23 07:18:00,
2013-04-23 03:23:00,48.9,44.5,29.94,NW,315,0.0,0.0,84,0.00,,,0.00,WUHU216HW,2013-04-23 07:23:00,
2013-04-23 03:28:00,48.9,44.5,29.94,WNW,293,3.5,3.5,84,0.00,,,0.00,WUHU216HW,2013-04-23 07:28:00,
2013-04-23 03:33:00,48.9,44.5,29.94,WNW,293,0.0,3.5,84,0.00,,,0.00,WUHU216HW,2013-04-23 07:33:00,
2013-04-23 03:38:00,48.7,44.0,29.94,ESE,113,0.0,3.5,84,0.00,,,0.00,WUHU216HW,2013-04-23 07:38:00,
2013-04-23 03:43:00,48.7,44.0,29.94,NNW,338,0.0,0.0,85,0.00,,,0.00,WUHU216HW,2013-04-23 07:43:00,
2013-04-23 03:48:00,48.5,44.2,29.94,North,0,0.0,0.0,85,0.00,,,0.00,WUHU216HW,2013-04-23 07:48:00,
2013-04-23 03:53:00,48.5,44.2,29.94,NNW,338,0.0,0.0,86,0.00,,,0.00,WUHU216HW,2013-04-23 07:53:00,
2013-04-23 03:58:00,48.5,44.2,29.94,NE,45,0.0,0.8,86,0.00,,,0.00,WUHU216HW,2013-04-23 07:58:00,
2013-04-23 04:03:00,48.3,44.3,29.94,ENE,68,0.0,0.8,86,0.00,,,0.00,WUHU216HW,2013-04-23 08:03:00,
2013-04-23 04:08:00,48.3,44.3,29.93,NNW,338,0.0,0.0,86,0.00,,,0.00,WUHU216HW,2013-04-23 08:08:00,
2013-04-23 04:13:00,48.3,44.3,29.94,NNW,338,0.0,0.0,86,0.00,,,0.00,WUHU216HW,2013-04-23 08:13:00,
2013-04-23 04:18:00,48.3,44.3,29.93,NNW,338,0.0,0.0,86,0.00,,,0.00,WUHU216HW,2013-04-23 08:18:00,
2013-04-23 04:23:00,48.3,44.3,29.94,North,0,0.0,0.0,87,0.00,,,0.00,WUHU216HW,2013-04-23 08:23:00,
2013-04-23 04:28:00,48.3,44.3,29.93,North,0,0.0,0.0,87,0.00,,,0.00,WUHU216HW,2013-04-23 08:28:00,
2013-04-23 04:33:00,48.3,44.3,29.93,NW,315,0.0,0.0,87,0.00,,,0.00,WUHU216HW,2013-04-23 08:33:00,
2013-04-23 04:38:00,48.0,44.3,29.93,NNW,338,0.0,0.6,87,0.00,,,0.00,WUHU216HW,2013-04-23 08:38:00,
2013-04-23 04:43:00,48.0,44.3,29.92,NW,315,0.0,0.6,87,0.00,,,0.00,WUHU216HW,2013-04-23 08:43:00,
2013-04-23 04:48:00,48.0,44.3,29.92,NNE,23,0.0,0.0,87,0.00,,,0.00,WUHU216HW,2013-04-23 08:48:00,
2013-04-23 04:53:00,48.0,44.3,29.92,NNW,338,0.0,0.0,87,0.00,,,0.00,WUHU216HW,2013-04-23 08:53:00,
2013-04-23 04:58:00,48.0,44.3,29.92,NW,315,0.0,0.0,87,0.00,,,0.00,WUHU216HW,2013-04-23 08:58:00,
2013-04-23 05:03:00,48.0,44.3,29.92,NW,315,4.6,4.6,87,0.00,,,0.00,WUHU216HW,2013-04-23 09:03:00,
2013-04-23 05:08:00,48.0,44.3,29.92,North,0,0.0,4.6,87,0.00,,,0.00,WUHU216HW,2013-04-23 09:08:00,
2013-04-23 05:13:00,48.0,44.3,29.92,North,0,0.0,4.6,87,0.00,,,0.00,WUHU216HW,2013-04-23 09:13:00,
2013-04-23 05:18:00,48.0,44.3,29.92,NNE,23,0.0,0.0,87,0.00,,,0.00,WUHU216HW,2013-04-23 09:18:00,
2013-04-23 05:23:00,48.0,44.3,29.92,NE,45,0.0,0.0,87,0.00,,,0.00,WUHU216HW,2013-04-23 09:23:00,
2013-04-23 05:28:00,48.0,44.3,29.92,NNW,338,0.0,0.0,87,0.00,,,0.00,WUHU216HW,2013-04-23 09:28:00,
2013-04-23 05:33:00,48.0,44.3,29.92,NW,315,0.0,0.0,87,0.00,,,0.00,WUHU216HW,2013-04-23 09:33:00,
2013-04-23 05:38:00,48.0,44.3,29.92,NNW,338,0.0,0.0,87,0.00,,,0.00,WUHU216HW,2013-04-23 09:38:00,
2013-04-23 05:43:00,48.0,44.3,29.92,North,0,0.0,0.0,87,0.00,,,0.00,WUHU216HW,2013-04-23 09:43:00,
2013-04-23 05:48:00,47.8,44.1,29.92,SE,135,0.0,2.6,87,0.00,,,0.00,WUHU216HW,2013-04-23 09:48:00,
2013-04-23 05:53:00,48.0,44.3,29.92,SE,135,0.0,2.6,87,0.00,,,0.00,WUHU216HW,2013-04-23 09:53:00,
2013-04-23 05:58:00,48.0,44.3,29.92,NNW,338,0.0,0.0,87,0.00,,,0.00,WUHU216HW,2013-04-23 09:58:00,
2013-04-23 06:03:00,48.0,44.3,29.93,ENE,68,0.0,0.0,87,0.00,,,0.00,WUHU216HW,2013-04-23 10:03:00,
2013-04-23 06:08:00,48.0,44.3,29.93,West,270,0.0,0.0,87,0.00,,,0.00,WUHU216HW,2013-04-23 10:08:00,
2013-04-23 06:13:00,48.0,44.3,29.93,NNW,338,0.0,0.0,86,0.00,,,0.00,WUHU216HW,2013-04-23 10:13:00,
2013-04-23 06:18:00,48.0,44.3,29.93,North,0,0.0,0.0,86,0.00,,,0.00,WUHU216HW,2013-04-23 10:18:00,
2013-04-23 06:23:00,48.0,44.3,29.93,North,0,0.0,0.0,86,0.00,,,0.00,WUHU216HW,2013-04-23 10:23:00,
2013-04-23 06:28:00,48.0,44.3,29.93,North,0,0.0,0.0,86,0.00,,,0.00,WUHU216HW,2013-04-23 10:28:00,
2013-04-23 06:33:00,48.0,44.3,29.93,North,0,0.0,0.0,86,0.00,,,0.00,WUHU216HW,2013-04-23 10:33:00,
2013-04-23 06:38:00,48.0,44.3,29.93,NNW,338,0.0,0.0,86,0.00,,,0.00,WUHU216HW,2013-04-23 10:38:00,
2013-04-23 06:43:00,48.0,44.3,29.93,NNW,338,0.0,0.0,86,0.00,,,0.00,WUHU216HW,2013-04-23 10:43:00,
2013-04-23 06:48:00,48.0,44.3,29.93,North,0,0.0,0.0,86,0.00,,,0.00,WUHU216HW,2013-04-23 10:48:00,
2013-04-23 06:53:00,48.0,44.0,29.93,WNW,293,0.0,0.0,86,0.00,,,0.00,WUHU216HW,2013-04-23 10:53:00,
2013-04-23 06:59:00,48.2,44.2,29.93,NNW,338,0.0,0.0,86,0.00,,,0.00,WUHU216HW,2013-04-23 10:59:00,
2013-04-23 07:04:00,48.2,44.2,29.93,East,90,0.0,0.0,86,0.00,,,0.00,WUHU216HW,2013-04-23 11:04:00,
2013-04-23 07:09:00,48.2,44.2,29.94,NNW,338,0.0,0.0,86,0.00,,,0.00,WUHU216HW,2013-04-23 11:09:00,
2013-04-23 07:11:00,57.0,49.4,29.82,NW,315,0.0,0.0,76,0.00,,,0.00,WUHU216HW,2013-04-23 11:11:00,
2013-04-23 07:12:00,57.0,49.4,29.82,NW,315,0.0,0.0,76,0.00,,,0.00,WUHU216HW,2013-04-23 11:12:00,
2013-04-23 07:14:00,48.2,44.2,29.94,NNW,338,0.0,0.0,85,0.00,,,0.00,WUHU216HW,2013-04-23 11:14:00,
2013-04-23 07:15:00,57.0,49.4,29.82,North,0,0.0,0.0,76,0.00,,,0.00,WUHU216HW,2013-04-23 11:15:00,
2013-04-23 07:16:00,57.0,49.4,29.82,ENE,68,0.0,0.0,76,0.00,,,0.00,WUHU216HW,2013-04-23 11:16:00,
2013-04-23 07:17:00,57.0,49.4,29.82,ENE,68,0.0,0.0,76,0.00,,,0.00,WUHU216HW,2013-04-23 11:17:00,
2013-04-23 07:18:00,56.8,49.2,29.82,NW,315,0.0,0.0,76,0.00,,,0.00,WUHU216HW,2013-04-23 11:18:00,
2013-04-23 07:19:00,48.3,44.0,29.94,NE,45,0.0,0.0,85,0.00,,,0.00,WUHU216HW,2013-04-23 11:19:00,
2013-04-23 07:20:00,56.8,49.2,29.81,East,90,0.0,0.0,76,0.00,,,0.00,WUHU216HW,2013-04-23 11:20:00,
2013-04-23 07:21:00,56.8,49.2,29.82,East,90,0.0,0.0,76,0.00,,,0.00,WUHU216HW,2013-04-23 11:21:00,
2013-04-23 07:22:00,56.8,49.2,29.81,NE,45,4.9,4.9,76,0.00,,,0.00,WUHU216HW,2013-04-23 11:22:00,
2013-04-23 07:23:00,56.8,49.2,29.81,NE,45,4.9,4.9,76,0.00,,,0.00,WUHU216HW,2013-04-23 11:23:00,
2013-04-23 07:24:00,48.3,44.0,29.94,North,0,0.0,0.0,85,0.00,,,0.00,WUHU216HW,2013-04-23 11:24:00,
2013-04-23 07:25:00,56.8,49.2,29.81,East,90,0.0,4.9,76,0.00,,,0.00,WUHU216HW,2013-04-23 11:25:00,
2013-04-23 07:26:00,56.8,49.2,29.81,East,90,0.0,4.9,76,0.00,,,0.00,WUHU216HW,2013-04-23 11:26:00,
2013-04-23 07:27:00,56.8,49.2,29.81,ENE,68,0.0,4.9,77,0.00,,,0.00,WUHU216HW,2013-04-23 11:27:00,
2013-04-23 07:28:00,56.8,49.2,29.81,ENE,68,0.0,4.9,77,0.00,,,0.00,WUHU216HW,2013-04-23 11:28:00,
2013-04-23 07:29:00,48.5,44.2,29.94,North,0,0.0,0.0,85,0.00,,,0.00,WUHU216HW,2013-04-23 11:29:00,
2013-04-23 07:33:00,48.5,44.2,29.94,NNE,23,0.0,0.0,85,0.00,,,0.00,WUHU216HW,2013-04-23 11:33:00,
2013-04-23 07:38:00,48.3,44.0,29.94,North,0,0.0,0.0,85,0.00,,,0.00,WUHU216HW,2013-04-23 11:38:00,
2013-04-23 07:43:00,48.5,44.2,29.94,NNW,338,0.0,0.0,85,0.00,,,0.00,WUHU216HW,2013-04-23 11:43:00,
2013-04-23 07:48:00,48.7,44.0,29.95,NE,45,0.0,0.0,84,0.00,,,0.00,WUHU216HW,2013-04-23 11:48:00,
2013-04-23 07:53:00,48.7,44.0,29.95,ENE,68,0.0,0.0,84,0.00,,,0.00,WUHU216HW,2013-04-23 11:53:00,
2013-04-23 07:58:00,48.9,44.2,29.95,NE,45,0.0,0.0,84,0.00,,,0.00,WUHU216HW,2013-04-23 11:58:00,
2013-04-23 08:03:00,48.9,44.2,29.95,North,0,2.0,2.0,84,0.00,,,0.00,WUHU216HW,2013-04-23 12:03:00,
2013-04-23 08:09:00,49.1,44.4,29.95,ESE,113,0.0,2.0,84,0.00,,,0.00,WUHU216HW,2013-04-23 12:09:00,
2013-04-23 08:14:00,49.1,44.4,29.95,WNW,293,3.8,3.8,84,0.00,,,0.00,WUHU216HW,2013-04-23 12:14:00,
2013-04-23 08:18:00,55.9,48.7,29.81,ENE,68,0.0,2.4,78,0.00,,,0.00,WUHU216HW,2013-04-23 12:18:00,
2013-04-23 08:19:00,49.1,44.4,29.95,NE,45,0.0,3.8,84,0.00,,,0.00,WUHU216HW,2013-04-23 12:19:00,
2013-04-23 08:20:00,55.7,48.9,29.81,NNW,338,1.3,2.4,78,0.00,,,0.00,WUHU216HW,2013-04-23 12:20:00,
2013-04-23 08:21:00,55.7,48.9,29.81,NNW,338,1.3,2.4,78,0.00,,,0.00,WUHU216HW,2013-04-23 12:21:00,
2013-04-23 08:22:00,55.7,48.9,29.80,ENE,68,0.0,2.4,78,0.00,,,0.00,WUHU216HW,2013-04-23 12:22:00,
2013-04-23 08:23:00,55.7,48.9,29.80,ENE,68,0.0,2.4,78,0.00,,,0.00,WUHU216HW,2013-04-23 12:23:00,
2013-04-23 08:24:00,49.2,44.5,29.94,NE,45,0.0,3.8,84,0.00,,,0.00,WUHU216HW,2013-04-23 12:24:00,
2013-04-23 08:25:00,55.7,48.9,29.80,NNE,23,0.0,2.4,78,0.00,,,0.00,WUHU216HW,2013-04-23 12:25:00,
2013-04-23 08:26:00,55.5,48.7,29.81,West,270,0.0,2.4,78,0.00,,,0.00,WUHU216HW,2013-04-23 12:26:00,
2013-04-23 08:27:00,55.5,48.7,29.81,West,270,0.0,1.3,78,0.00,,,0.00,WUHU216HW,2013-04-23 12:27:00,
2013-04-23 08:28:00,55.5,48.7,29.81,ENE,68,1.1,1.3,78,0.00,,,0.00,WUHU216HW,2013-04-23 12:28:00,
2013-04-23 08:29:00,49.6,44.9,29.94,NE,45,2.2,2.2,84,0.00,,,0.00,WUHU216HW,2013-04-23 12:29:00,
2013-04-23 08:30:00,55.5,48.7,29.81,ENE,68,3.8,3.8,78,0.00,,,0.00,WUHU216HW,2013-04-23 12:30:00,
2013-04-23 08:31:00,55.5,48.7,29.81,ENE,68,3.8,3.8,78,0.00,,,0.00,WUHU216HW,2013-04-23 12:31:00,
2013-04-23 08:32:00,55.5,48.7,29.81,ENE,68,3.8,3.8,78,0.00,,,0.00,WUHU216HW,2013-04-23 12:32:00,
2013-04-23 08:33:00,55.5,48.7,29.81,ENE,68,0.0,3.8,78,0.00,,,0.00,WUHU216HW,2013-04-23 12:33:00,
2013-04-23 08:34:00,49.6,44.9,29.95,NE,45,0.0,2.2,84,0.00,,,0.00,WUHU216HW,2013-04-23 12:34:00,
2013-04-23 08:35:00,55.5,48.7,29.81,ENE,68,0.0,3.8,78,0.00,,,0.00,WUHU216HW,2013-04-23 12:35:00,
2013-04-23 08:36:00,55.5,48.7,29.81,NE,45,0.0,3.8,78,0.00,,,0.00,WUHU216HW,2013-04-23 12:36:00,
2013-04-23 08:37:00,55.5,48.7,29.81,NE,45,0.0,3.8,78,0.00,,,0.00,WUHU216HW,2013-04-23 12:37:00,
2013-04-23 08:38:00,49.6,44.9,29.95,North,0,0.0,2.2,84,0.00,,,0.00,WUHU216HW,2013-04-23 12:38:00,
2013-04-23 08:39:00,55.5,48.7,29.81,NNE,23,0.0,3.8,78,0.00,,,0.00,WUHU216HW,2013-04-23 12:39:00,
2013-04-23 08:40:00,55.5,48.7,29.81,NNE,23,0.0,3.8,78,0.00,,,0.00,WUHU216HW,2013-04-23 12:40:00,
2013-04-23 08:43:00,49.6,44.9,29.95,NNW,338,0.0,0.0,84,0.00,,,0.00,WUHU216HW,2013-04-23 12:43:00,
2013-04-23 08:48:00,49.4,44.4,29.95,NNW,338,0.0,0.0,83,0.00,,,0.00,WUHU216HW,2013-04-23 12:48:00,
2013-04-23 08:53:00,49.6,44.9,29.95,NNE,23,0.0,0.0,84,0.00,,,0.00,WUHU216HW,2013-04-23 12:53:00,
2013-04-23 08:58:00,49.6,44.6,29.95,NE,45,1.7,4.0,83,0.00,,,0.00,WUHU216HW,2013-04-23 12:58:00,
2013-04-23 09:03:00,49.6,44.6,29.95,North,0,0.0,4.0,83,0.00,,,0.00,WUHU216HW,2013-04-23 13:03:00,
2013-04-23 09:08:00,49.8,44.8,29.95,ESE,113,0.4,3.8,83,0.00,,,0.00,WUHU216HW,2013-04-23 13:08:00,
2013-04-23 09:13:00,50.0,44.9,29.95,SE,135,0.0,3.8,83,0.00,,,0.00,WUHU216HW,2013-04-23 13:13:00,
2013-04-23 09:18:00,50.1,45.1,29.95,ENE,68,0.0,0.4,83,0.00,,,0.00,WUHU216HW,2013-04-23 13:18:00,
2013-04-23 09:23:00,50.1,45.1,29.96,NNE,23,0.0,0.0,82,0.00,,,0.00,WUHU216HW,2013-04-23 13:23:00,
2013-04-23 09:28:00,50.5,45.2,29.96,North,0,0.0,0.0,82,0.00,,,0.00,WUHU216HW,2013-04-23 13:28:00,
2013-04-23 09:32:00,55.0,48.6,29.81,North,0,0.0,7.6,79,0.00,,,0.00,WUHU216HW,2013-04-23 13:32:00,
2013-04-23 09:33:00,50.5,45.2,29.96,SSE,158,0.0,0.0,82,0.00,,,0.00,WUHU216HW,2013-04-23 13:33:00,
2013-04-23 09:34:00,55.0,48.6,29.80,North,0,0.0,7.6,79,0.00,,,0.00,WUHU216HW,2013-04-23 13:34:00,
2013-04-23 09:35:00,55.0,48.6,29.80,NNE,23,1.7,7.6,79,0.00,,,0.00,WUHU216HW,2013-04-23 13:35:00,
2013-04-23 09:38:00,50.5,45.2,29.95,NE,45,2.9,2.9,82,0.00,,,0.00,WUHU216HW,2013-04-23 13:38:00,
2013-04-23 09:39:00,55.0,48.6,29.80,NNW,338,0.0,7.6,79,0.00,,,0.00,WUHU216HW,2013-04-23 13:39:00,
2013-04-23 09:40:00,55.0,48.6,29.80,NNW,338,0.0,1.7,79,0.00,,,0.00,WUHU216HW,2013-04-23 13:40:00,
2013-04-23 09:41:00,55.0,48.6,29.80,NNW,338,0.0,1.7,79,0.00,,,0.00,WUHU216HW,2013-04-23 13:41:00,
2013-04-23 09:43:00,50.7,45.3,29.96,NE,45,1.7,7.1,82,0.00,,,0.00,WUHU216HW,2013-04-23 13:43:00,
2013-04-23 09:44:00,54.8,48.4,29.80,NE,45,0.0,1.7,79,0.00,,,0.00,WUHU216HW,2013-04-23 13:44:00,
2013-04-23 09:45:00,54.8,48.4,29.80,NE,45,0.0,1.7,79,0.00,,,0.00,WUHU216HW,2013-04-23 13:45:00,
2013-04-23 09:46:00,54.8,48.4,29.80,North,0,0.0,1.7,79,0.00,,,0.00,WUHU216HW,2013-04-23 13:46:00,
2013-04-23 09:47:00,54.8,48.4,29.80,North,0,0.0,0.0,79,0.00,,,0.00,WUHU216HW,2013-04-23 13:47:00,
2013-04-23 09:48:00,50.7,45.3,29.96,ENE,68,0.0,7.1,81,0.00,,,0.00,WUHU216HW,2013-04-23 13:48:00,
2013-04-23 09:49:00,54.6,48.2,29.80,NNW,338,0.0,0.0,79,0.00,,,0.00,WUHU216HW,2013-04-23 13:49:00,
2013-04-23 09:50:00,54.6,48.2,29.80,NE,45,0.0,0.0,79,0.00,,,0.00,WUHU216HW,2013-04-23 13:50:00,
2013-04-23 09:51:00,54.6,48.2,29.80,NE,45,0.0,0.0,79,0.00,,,0.00,WUHU216HW,2013-04-23 13:51:00,
2013-04-23 09:52:00,54.6,48.2,29.80,NNE,23,0.0,0.0,80,0.00,,,0.00,WUHU216HW,2013-04-23 13:52:00,
2013-04-23 09:53:00,50.9,45.5,29.96,North,0,2.2,2.2,82,0.00,,,0.00,WUHU216HW,2013-04-23 13:53:00,
2013-04-23 09:54:00,54.6,48.2,29.80,NW,315,0.0,0.0,79,0.00,,,0.00,WUHU216HW,2013-04-23 13:54:00,
2013-04-23 09:55:00,54.6,48.2,29.80,NW,315,0.0,0.0,79,0.00,,,0.00,WUHU216HW,2013-04-23 13:55:00,
2013-04-23 09:56:00,54.6,48.2,29.79,NNW,338,0.0,0.0,80,0.00,,,0.00,WUHU216HW,2013-04-23 13:56:00,
2013-04-23 09:57:00,54.6,48.2,29.79,NNW,338,0.0,0.0,80,0.00,,,0.00,WUHU216HW,2013-04-23 13:57:00,
2013-04-23 09:58:00,50.9,45.2,29.95,North,0,0.6,6.0,81,0.00,,,0.00,WUHU216HW,2013-04-23 13:58:00,
2013-04-23 09:59:00,54.6,48.2,29.80,NE,45,0.0,0.0,79,0.00,,,0.00,WUHU216HW,2013-04-23 13:59:00,
2013-04-23 10:01:00,54.6,48.2,29.80,NNE,23,0.0,0.0,80,0.00,,,0.00,WUHU216HW,2013-04-23 14:01:00,
2013-04-23 10:02:00,54.6,48.2,29.79,NNE,23,0.0,0.0,80,0.00,,,0.00,WUHU216HW,2013-04-23 14:02:00,
2013-04-23 10:03:00,51.0,45.4,29.96,NE,45,0.0,6.0,81,0.00,,,0.00,WUHU216HW,2013-04-23 14:03:00,
2013-04-23 10:08:00,51.4,45.8,29.96,ENE,68,3.5,3.5,81,0.00,,,0.00,WUHU216HW,2013-04-23 14:08:00,
2013-04-23 10:13:00,51.4,45.8,29.96,NNE,23,0.0,3.5,81,0.00,,,0.00,WUHU216HW,2013-04-23 14:13:00,
2013-04-23 10:18:00,51.0,45.1,29.95,NE,45,0.0,3.5,80,0.00,,,0.00,WUHU216HW,2013-04-23 14:18:00,
2013-04-23 10:23:00,51.4,45.8,29.96,East,90,0.0,2.2,81,0.00,,,0.00,WUHU216HW,2013-04-23 14:23:00,
2013-04-23 10:28:00,51.9,46.0,29.96,North,0,0.0,4.0,80,0.00,,,0.00,WUHU216HW,2013-04-23 14:28:00,
2013-04-23 10:33:00,51.9,46.0,29.96,NE,45,3.3,4.0,79,0.00,,,0.00,WUHU216HW,2013-04-23 14:33:00,
2013-04-23 10:38:00,51.9,46.0,29.97,NNW,338,0.0,3.3,79,0.00,,,0.00,WUHU216HW,2013-04-23 14:38:00,
2013-04-23 10:43:00,52.3,46.0,29.97,NNW,338,2.4,3.3,79,0.00,,,0.00,WUHU216HW,2013-04-23 14:43:00,
2013-04-23 10:48:00,52.5,46.2,29.96,ENE,68,2.6,3.1,79,0.00,,,0.00,WUHU216HW,2013-04-23 14:48:00,
2013-04-23 10:53:00,52.5,46.2,29.97,North,0,3.3,3.3,79,0.00,,,0.00,WUHU216HW,2013-04-23 14:53:00,
2013-04-23 10:58:00,52.7,46.4,29.97,WNW,293,0.0,3.3,78,0.00,,,0.00,WUHU216HW,2013-04-23 14:58:00,
2013-04-23 11:03:00,52.8,46.2,29.97,NNE,23,2.9,3.3,79,0.00,,,0.00,WUHU216HW,2013-04-23 15:03:00,
2013-04-23 11:08:00,53.2,46.5,29.97,NE,45,0.0,2.9,78,0.00,,,0.00,WUHU216HW,2013-04-23 15:08:00,
2013-04-23 11:13:00,53.4,46.7,29.97,NNE,23,0.0,2.9,78,0.00,,,0.00,WUHU216HW,2013-04-23 15:13:00,
2013-04-23 11:18:00,53.6,46.9,29.96,WNW,293,2.9,2.9,78,0.00,,,0.00,WUHU216HW,2013-04-23 15:18:00,
2013-04-23 11:23:00,53.7,46.7,29.97,ENE,68,0.0,2.9,77,0.00,,,0.00,WUHU216HW,2013-04-23 15:23:00,
2013-04-23 11:29:00,54.1,46.7,29.97,NE,45,0.0,2.9,76,0.00,,,0.00,WUHU216HW,2013-04-23 15:29:00,
2013-04-23 11:34:00,54.3,47.2,29.97,NE,45,3.3,3.3,77,0.00,,,0.00,WUHU216HW,2013-04-23 15:34:00,
2013-04-23 11:39:00,54.3,47.2,29.97,NNW,338,0.0,3.3,76,0.00,,,0.00,WUHU216HW,2013-04-23 15:39:00,
2013-04-23 11:44:00,54.6,47.2,29.97,NNW,338,0.0,3.3,76,0.00,,,0.00,WUHU216HW,2013-04-23 15:44:00,
2013-04-23 11:49:00,55.0,47.2,29.97,NE,45,0.0,0.0,75,0.00,,,0.00,WUHU216HW,2013-04-23 15:49:00,
2013-04-23 11:54:00,55.2,47.4,29.97,NNE,23,0.0,0.0,75,0.00,,,0.00,WUHU216HW,2013-04-23 15:54:00,
2013-04-23 11:59:00,55.7,47.5,29.97,East,90,0.0,0.0,74,0.00,,,0.00,WUHU216HW,2013-04-23 15:59:00,
2013-04-23 12:04:00,55.7,47.5,29.97,SSW,203,0.0,0.0,73,0.00,,,0.00,WUHU216HW,2013-04-23 16:04:00,
2013-04-23 12:09:00,55.9,47.3,29.97,WNW,293,0.0,0.0,74,0.00,,,0.00,WUHU216HW,2013-04-23 16:09:00,
2013-04-23 12:14:00,56.1,47.5,29.96,NE,45,0.0,0.0,73,0.00,,,0.00,WUHU216HW,2013-04-23 16:14:00,
2013-04-23 12:19:00,55.9,47.3,29.96,ENE,68,0.0,0.0,73,0.00,,,0.00,WUHU216HW,2013-04-23 16:19:00,
2013-04-23 12:24:00,55.7,47.2,29.96,NW,315,2.2,2.2,74,0.00,,,0.00,WUHU216HW,2013-04-23 16:24:00,
2013-04-23 12:29:00,56.4,47.8,29.96,NW,315,0.0,2.2,73,0.00,,,0.00,WUHU216HW,2013-04-23 16:29:00,
2013-04-23 12:33:00,56.8,47.8,29.96,NNE,23,0.0,2.2,72,0.00,,,0.00,WUHU216HW,2013-04-23 16:33:00,
2013-04-23 12:38:00,57.0,48.0,29.96,West,270,2.9,2.9,72,0.00,,,0.00,WUHU216HW,2013-04-23 16:38:00,
2013-04-23 12:43:00,57.9,48.9,29.96,NW,315,2.9,2.9,72,0.00,,,0.00,WUHU216HW,2013-04-23 16:43:00,
2013-04-23 12:48:00,58.2,48.5,29.97,NW,315,0.0,2.9,70,0.00,,,0.00,WUHU216HW,2013-04-23 16:48:00,
2013-04-23 12:53:00,58.6,48.5,29.97,North,0,0.0,2.9,69,0.00,,,0.00,WUHU216HW,2013-04-23 16:53:00,
2013-04-23 12:59:00,58.4,48.3,29.97,SSW,203,0.0,0.0,69,0.00,,,0.00,WUHU216HW,2013-04-23 16:59:00,
2013-04-23 13:03:00,58.2,48.1,29.95,WNW,293,0.0,0.0,70,0.00,,,0.00,WUHU216HW,2013-04-23 17:03:00,
2013-04-23 13:08:00,58.2,48.1,29.96,WNW,293,0.0,0.0,71,0.00,,,0.00,WUHU216HW,2013-04-23 17:08:00,
2013-04-23 13:13:00,58.1,47.9,29.95,ESE,113,0.0,3.3,69,0.00,,,0.00,WUHU216HW,2013-04-23 17:13:00,
2013-04-23 13:19:00,58.2,47.7,29.94,ENE,68,0.0,3.3,68,0.00,,,0.00,WUHU216HW,2013-04-23 17:19:00,
2013-04-23 13:24:00,58.2,48.1,29.94,NE,45,0.0,4.0,69,0.00,,,0.00,WUHU216HW,2013-04-23 17:24:00,
2013-04-23 13:28:00,58.6,48.5,29.94,ENE,68,0.0,4.0,68,0.00,,,0.00,WUHU216HW,2013-04-23 17:28:00,
2013-04-23 13:33:00,59.0,48.8,29.94,NE,45,0.0,0.0,69,0.00,,,0.00,WUHU216HW,2013-04-23 17:33:00,
2013-04-23 13:38:00,59.3,48.4,29.93,West,270,0.0,0.0,67,0.00,,,0.00,WUHU216HW,2013-04-23 17:38:00,
2013-04-23 13:40:00,51.6,46.2,29.76,ENE,68,0.0,1.1,82,0.00,,,0.00,WUHU216HW,2013-04-23 17:40:00,
2013-04-23 13:43:00,59.3,47.9,29.93,East,90,0.0,0.0,66,0.00,,,0.00,WUHU216HW,2013-04-23 17:43:00,
2013-04-23 13:44:00,51.6,46.2,29.75,North,0,0.0,0.0,82,0.00,,,0.00,WUHU216HW,2013-04-23 17:44:00,
2013-04-23 13:45:00,51.6,46.2,29.76,North,0,0.0,0.0,82,0.00,,,0.00,WUHU216HW,2013-04-23 17:45:00,
2013-04-23 13:46:00,51.6,46.2,29.76,NNW,338,0.0,0.0,83,0.00,,,0.00,WUHU216HW,2013-04-23 17:46:00,
2013-04-23 13:47:00,51.6,46.2,29.75,NNW,338,0.0,0.0,83,0.00,,,0.00,WUHU216HW,2013-04-23 17:47:00,
2013-04-23 13:48:00,59.5,48.9,29.93,NE,45,0.0,2.2,68,0.00,,,0.00,WUHU216HW,2013-04-23 17:48:00,
2013-04-23 13:49:00,51.4,46.4,29.75,WNW,293,0.0,0.0,83,0.00,,,0.00,WUHU216HW,2013-04-23 17:49:00,
2013-04-23 13:50:00,51.4,46.1,29.75,North,0,2.4,7.1,82,0.00,,,0.00,WUHU216HW,2013-04-23 17:50:00,
2013-04-23 13:51:00,51.4,46.1,29.76,ESE,113,0.0,7.1,82,0.00,,,0.00,WUHU216HW,2013-04-23 17:51:00,
2013-04-23 13:52:00,51.4,46.1,29.76,NNW,338,3.1,7.1,82,0.00,,,0.00,WUHU216HW,2013-04-23 17:52:00,
2013-04-23 13:53:00,60.2,49.3,29.93,ENE,68,1.7,2.2,67,0.00,,,0.00,WUHU216HW,2013-04-23 17:53:00,
2013-04-23 13:54:00,51.4,46.1,29.75,NNW,338,3.1,7.1,82,0.00,,,0.00,WUHU216HW,2013-04-23 17:54:00,
2013-04-23 13:55:00,51.4,46.1,29.75,NW,315,0.0,7.1,82,0.00,,,0.00,WUHU216HW,2013-04-23 17:55:00,
2013-04-23 13:56:00,51.4,46.1,29.75,NW,315,0.0,7.1,82,0.00,,,0.00,WUHU216HW,2013-04-23 17:56:00,
2013-04-23 13:57:00,51.4,46.1,29.75,NW,315,0.0,7.1,82,0.00,,,0.00,WUHU216HW,2013-04-23 17:57:00,
2013-04-23 13:58:00,60.4,49.0,29.93,NNW,338,0.0,1.7,66,0.00,,,0.00,WUHU216HW,2013-04-23 17:58:00,
2013-04-23 13:59:00,51.4,46.1,29.75,ENE,68,0.0,7.1,82,0.00,,,0.00,WUHU216HW,2013-04-23 17:59:00,
2013-04-23 14:00:00,51.4,46.1,29.75,ENE,68,0.0,3.1,82,0.00,,,0.00,WUHU216HW,2013-04-23 18:00:00,
2013-04-23 14:01:00,51.4,46.1,29.75,ENE,68,0.0,3.1,82,0.00,,,0.00,WUHU216HW,2013-04-23 18:01:00,
2013-04-23 14:03:00,60.8,49.4,29.92,North,0,0.0,1.7,66,0.00,,,0.00,WUHU216HW,2013-04-23 18:03:00,
2013-04-23 14:08:00,61.5,48.8,29.92,West,270,0.0,0.0,63,0.00,,,0.00,WUHU216HW,2013-04-23 18:08:00,
2013-04-23 14:13:00,61.8,49.5,29.92,East,90,0.0,0.0,63,0.00,,,0.00,WUHU216HW,2013-04-23 18:13:00,
2013-04-23 14:18:00,62.0,49.3,29.92,ENE,68,0.0,0.0,63,0.00,,,0.00,WUHU216HW,2013-04-23 18:18:00,
2013-04-23 14:23:00,62.2,49.0,29.91,East,90,0.0,0.0,63,0.00,,,0.00,WUHU216HW,2013-04-23 18:23:00,
2013-04-23 14:28:00,62.4,49.6,29.90,East,90,0.0,0.0,63,0.00,,,0.00,WUHU216HW,2013-04-23 18:28:00,
2013-04-23 14:33:00,62.6,49.3,29.91,East,90,0.0,0.0,62,0.00,,,0.00,WUHU216HW,2013-04-23 18:33:00,
2013-04-23 14:38:00,62.2,49.4,29.90,South,180,0.0,0.0,63,0.00,,,0.00,WUHU216HW,2013-04-23 18:38:00,
2013-04-23 14:43:00,62.2,49.4,29.90,West,270,0.0,0.0,63,0.00,,,0.00,WUHU216HW,2013-04-23 18:43:00,
2013-04-23 14:48:00,62.4,50.0,29.90,NNW,338,0.0,0.0,64,0.00,,,0.00,WUHU216HW,2013-04-23 18:48:00,
2013-04-23 14:53:00,62.6,49.8,29.89,NE,45,0.0,0.0,63,0.00,,,0.00,WUHU216HW,2013-04-23 18:53:00,
2013-04-23 14:58:00,62.7,50.3,29.89,NNW,338,0.0,0.0,62,0.00,,,0.00,WUHU216HW,2013-04-23 18:58:00,
2013-04-23 15:03:00,62.7,50.3,29.89,NW,315,0.0,3.1,63,0.00,,,0.00,WUHU216HW,2013-04-23 19:03:00,
2013-04-23 15:08:00,62.9,50.1,29.88,NNW,338,0.0,3.1,62,0.00,,,0.00,WUHU216HW,2013-04-23 19:08:00,
2013-04-23 15:13:00,62.9,50.1,29.88,NE,45,0.0,3.8,62,0.00,,,0.00,WUHU216HW,2013-04-23 19:13:00,
2013-04-23 15:18:00,63.1,50.3,29.88,NE,45,0.0,3.8,63,0.00,,,0.00,WUHU216HW,2013-04-23 19:18:00,
2013-04-23 15:23:00,63.3,50.0,29.88,East,90,0.0,0.0,62,0.00,,,0.00,WUHU216HW,2013-04-23 19:23:00,
2013-04-23 15:28:00,63.1,49.8,29.88,NE,45,2.0,2.0,62,0.00,,,0.00,WUHU216HW,2013-04-23 19:28:00,
2013-04-23 15:33:00,63.1,49.8,29.87,NW,315,0.0,2.0,61,0.00,,,0.00,WUHU216HW,2013-04-23 19:33:00,
2013-04-23 15:38:00,62.7,49.5,29.87,East,90,0.0,2.0,62,0.00,,,0.00,WUHU216HW,2013-04-23 19:38:00,
2013-04-23 15:43:00,62.9,49.7,29.87,North,0,3.1,3.1,62,0.00,,,0.00,WUHU216HW,2013-04-23 19:43:00,
2013-04-23 15:48:00,63.1,49.8,29.87,WNW,293,0.0,3.1,62,0.00,,,0.00,WUHU216HW,2013-04-23 19:48:00,
2013-04-23 15:53:00,63.1,49.8,29.87,North,0,0.0,3.1,62,0.00,,,0.00,WUHU216HW,2013-04-23 19:53:00,
2013-04-23 15:54:00,50.5,45.8,29.77,North,0,0.0,0.0,84,0.00,,,0.00,WUHU216HW,2013-04-23 19:54:00,
2013-04-23 15:55:00,50.5,45.8,29.77,NNE,23,2.4,2.4,84,0.00,,,0.00,WUHU216HW,2013-04-23 19:55:00,
2013-04-23 15:56:00,50.5,45.8,29.77,NNE,23,2.4,2.4,84,0.00,,,0.00,WUHU216HW,2013-04-23 19:56:00,
2013-04-23 15:57:00,50.5,45.8,29.78,NE,45,0.0,2.4,84,0.00,,,0.00,WUHU216HW,2013-04-23 19:57:00,
2013-04-23 15:58:00,63.3,49.6,29.87,NNE,23,0.0,0.0,61,0.00,,,0.00,WUHU216HW,2013-04-23 19:58:00,
2013-04-23 15:59:00,50.5,45.8,29.78,ESE,113,0.0,2.4,84,0.00,,,0.00,WUHU216HW,2013-04-23 19:59:00,
2013-04-23 16:01:00,50.5,45.8,29.78,NE,45,0.0,2.4,84,0.00,,,0.00,WUHU216HW,2013-04-23 20:01:00,
2013-04-23 16:02:00,50.5,45.8,29.78,NE,45,0.0,2.4,84,0.00,,,0.00,WUHU216HW,2013-04-23 20:02:00,
2013-04-23 16:03:00,63.3,49.6,29.87,NE,45,0.0,0.0,61,0.00,,,0.00,WUHU216HW,2013-04-23 20:03:00,
2013-04-23 16:04:00,50.5,45.8,29.78,ENE,68,0.0,2.4,84,0.00,,,0.00,WUHU216HW,2013-04-23 20:04:00,
2013-04-23 16:05:00,50.5,45.8,29.78,ENE,68,0.0,2.4,84,0.00,,,0.00,WUHU216HW,2013-04-23 20:05:00,
2013-04-23 16:08:00,63.5,49.7,29.86,NNE,23,0.0,4.2,61,0.00,,,0.00,WUHU216HW,2013-04-23 20:08:00,
2013-04-23 16:11:00,50.5,45.8,29.78,ENE,68,1.7,6.4,84,0.00,,,0.00,WUHU216HW,2013-04-23 20:11:00,
2013-04-23 16:12:00,50.5,45.8,29.77,ENE,68,1.7,6.4,84,0.00,,,0.00,WUHU216HW,2013-04-23 20:12:00,
2013-04-23 16:13:00,63.5,49.7,29.86,NNE,23,0.0,4.2,61,0.00,,,0.00,WUHU216HW,2013-04-23 20:13:00,
2013-04-23 16:18:00,63.6,49.9,29.86,North,0,0.0,0.0,61,0.00,,,0.00,WUHU216HW,2013-04-23 20:18:00,
2013-04-23 16:23:00,63.8,50.1,29.85,North,0,0.0,0.0,61,0.00,,,0.00,WUHU216HW,2013-04-23 20:23:00,
2013-04-23 16:28:00,64.0,50.2,29.85,North,0,0.0,0.0,61,0.00,,,0.00,WUHU216HW,2013-04-23 20:28:00,
2013-04-23 16:33:00,63.8,50.1,29.85,North,0,0.0,0.0,61,0.00,,,0.00,WUHU216HW,2013-04-23 20:33:00,
2013-04-23 16:38:00,64.0,50.2,29.85,North,0,0.0,0.0,60,0.00,,,0.00,WUHU216HW,2013-04-23 20:38:00,
2013-04-23 16:43:00,64.0,50.2,29.84,NNE,23,0.0,0.0,60,0.00,,,0.00,WUHU216HW,2013-04-23 20:43:00,
2013-04-23 16:48:00,64.0,50.2,29.84,ENE,68,0.0,0.0,60,0.00,,,0.00,WUHU216HW,2013-04-23 20:48:00,
2013-04-23 16:54:00,64.0,50.2,29.84,North,0,0.0,0.0,60,0.00,,,0.00,WUHU216HW,2013-04-23 20:54:00,
2013-04-23 16:59:00,64.0,50.2,29.84,NE,45,0.0,0.0,60,0.00,,,0.00,WUHU216HW,2013-04-23 20:59:00,
2013-04-23 17:04:00,64.0,49.8,29.84,NE,45,0.0,0.0,60,0.00,,,0.00,WUHU216HW,2013-04-23 21:04:00,
2013-04-23 17:09:00,64.2,49.5,29.84,NNW,338,0.0,0.0,59,0.00,,,0.00,WUHU216HW,2013-04-23 21:09:00,
2013-04-23 17:14:00,64.2,49.5,29.84,NW,315,0.0,0.0,60,0.00,,,0.00,WUHU216HW,2013-04-23 21:14:00,
2013-04-23 17:19:00,64.2,49.5,29.84,NW,315,0.0,0.0,59,0.00,,,0.00,WUHU216HW,2013-04-23 21:19:00,
2013-04-23 17:24:00,64.2,49.5,29.84,NE,45,0.0,0.0,59,0.00,,,0.00,WUHU216HW,2013-04-23 21:24:00,
2013-04-23 17:28:00,64.2,49.5,29.84,NE,45,0.0,0.0,60,0.00,,,0.00,WUHU216HW,2013-04-23 21:28:00,
2013-04-23 17:34:00,64.0,49.8,29.84,NE,45,0.0,0.0,60,0.00,,,0.00,WUHU216HW,2013-04-23 21:34:00,
2013-04-23 17:39:00,64.0,49.8,29.84,NE,45,0.0,0.0,61,0.00,,,0.00,WUHU216HW,2013-04-23 21:39:00,
2013-04-23 17:44:00,64.2,50.0,29.84,NE,45,0.0,0.0,60,0.00,,,0.00,WUHU216HW,2013-04-23 21:44:00,
2013-04-23 17:49:00,64.2,50.0,29.84,NE,45,0.0,0.0,60,0.00,,,0.00,WUHU216HW,2013-04-23 21:49:00,
2013-04-23 17:54:00,64.0,49.8,29.84,NE,45,0.0,0.0,60,0.00,,,0.00,WUHU216HW,2013-04-23 21:54:00,
2013-04-23 17:58:00,64.0,49.8,29.85,NE,45,0.0,0.0,61,0.00,,,0.00,WUHU216HW,2013-04-23 21:58:00,
2013-04-23 18:00:00,51.4,47.6,29.78,East,90,0.0,4.6,87,0.00,,,0.00,WUHU216HW,2013-04-23 22:00:00,
2013-04-23 18:01:00,51.4,47.6,29.78,East,90,0.0,4.6,87,0.00,,,0.00,WUHU216HW,2013-04-23 22:01:00,
2013-04-23 18:02:00,51.4,47.6,29.78,ENE,68,1.3,6.2,87,0.00,,,0.00,WUHU216HW,2013-04-23 22:02:00,
2013-04-23 18:03:00,64.0,50.2,29.85,NE,45,0.0,0.0,61,0.00,,,0.00,WUHU216HW,2013-04-23 22:03:00,
2013-04-23 18:04:00,51.4,47.6,29.78,ENE,68,1.3,6.2,87,0.00,,,0.00,WUHU216HW,2013-04-23 22:04:00,
2013-04-23 18:05:00,51.4,47.6,29.78,ENE,68,2.6,6.2,87,0.00,,,0.00,WUHU216HW,2013-04-23 22:05:00,
2013-04-23 18:06:00,51.4,47.6,29.78,ENE,68,2.6,6.2,87,0.00,,,0.00,WUHU216HW,2013-04-23 22:06:00,
2013-04-23 18:08:00,64.2,50.4,29.84,NE,45,0.0,0.0,61,0.00,,,0.00,WUHU216HW,2013-04-23 22:08:00,
2013-04-23 18:10:00,51.4,47.6,29.78,NE,45,0.0,6.2,86,0.00,,,0.00,WUHU216HW,2013-04-23 22:10:00,
2013-04-23 18:11:00,51.6,47.5,29.78,North,0,4.2,6.2,86,0.00,,,0.00,WUHU216HW,2013-04-23 22:11:00,
2013-04-23 18:12:00,51.6,47.5,29.78,North,0,4.2,4.2,86,0.00,,,0.00,WUHU216HW,2013-04-23 22:12:00,
2013-04-23 18:13:00,64.0,49.8,29.84,ENE,68,0.0,0.0,60,0.00,,,0.00,WUHU216HW,2013-04-23 22:13:00,
2013-04-23 18:14:00,51.6,47.5,29.78,NNW,338,0.0,4.2,86,0.00,,,0.00,WUHU216HW,2013-04-23 22:14:00,
2013-04-23 18:15:00,51.6,47.5,29.78,NE,45,0.0,4.2,86,0.00,,,0.00,WUHU216HW,2013-04-23 22:15:00,
2013-04-23 18:18:00,64.0,49.8,29.84,ENE,68,0.0,0.0,61,0.00,,,0.00,WUHU216HW,2013-04-23 22:18:00,
2013-04-23 18:23:00,64.0,49.8,29.85,ENE,68,0.0,0.0,62,0.00,,,0.00,WUHU216HW,2013-04-23 22:23:00,
2013-04-23 18:28:00,64.0,49.8,29.85,ENE,68,0.0,0.0,63,0.00,,,0.00,WUHU216HW,2013-04-23 22:28:00,
2013-04-23 18:29:00,52.1,48.0,29.77,North,0,0.0,1.5,86,0.00,,,0.00,WUHU216HW,2013-04-23 22:29:00,
2013-04-23 18:30:00,52.3,48.2,29.77,NE,45,4.0,4.0,86,0.00,,,0.00,WUHU216HW,2013-04-23 22:30:00,
2013-04-23 18:31:00,52.3,48.2,29.77,NE,45,4.0,4.0,86,0.00,,,0.00,WUHU216HW,2013-04-23 22:31:00,
2013-04-23 18:33:00,64.0,49.8,29.84,ENE,68,0.0,0.0,63,0.00,,,0.00,WUHU216HW,2013-04-23 22:33:00,
2013-04-23 18:34:00,52.3,47.9,29.77,NE,45,0.0,4.0,85,0.00,,,0.00,WUHU216HW,2013-04-23 22:34:00,
2013-04-23 18:35:00,52.3,47.9,29.77,NNW,338,0.0,4.0,86,0.00,,,0.00,WUHU216HW,2013-04-23 22:35:00,
2013-04-23 18:36:00,52.3,47.9,29.77,NNW,338,0.0,4.0,86,0.00,,,0.00,WUHU216HW,2013-04-23 22:36:00,
2013-04-23 18:37:00,52.3,47.9,29.77,NNW,338,0.0,4.0,86,0.00,,,0.00,WUHU216HW,2013-04-23 22:37:00,
2013-04-23 18:38:00,63.8,51.4,29.84,ENE,68,0.0,0.0,64,0.00,,,0.00,WUHU216HW,2013-04-23 22:38:00,
2013-04-23 18:39:00,52.5,48.4,29.77,NNW,338,0.0,4.0,85,0.00,,,0.00,WUHU216HW,2013-04-23 22:39:00,
2013-04-23 18:40:00,52.5,48.4,29.77,NNW,338,0.0,4.0,85,0.00,,,0.00,WUHU216HW,2013-04-23 22:40:00,
2013-04-23 18:41:00,52.5,48.4,29.77,NNW,338,0.0,4.0,85,0.00,,,0.00,WUHU216HW,2013-04-23 22:41:00,
2013-04-23 18:43:00,63.6,51.2,29.84,ENE,68,0.0,0.0,64,0.00,,,0.00,WUHU216HW,2013-04-23 22:43:00,
2013-04-23 18:44:00,52.7,48.2,29.77,NNW,338,1.1,1.1,85,0.00,,,0.00,WUHU216HW,2013-04-23 22:44:00,
2013-04-23 18:45:00,52.7,48.2,29.77,NNW,338,1.1,1.1,85,0.00,,,0.00,WUHU216HW,2013-04-23 22:45:00,
2013-04-23 18:46:00,52.8,48.4,29.77,NE,45,2.9,2.9,85,0.00,,,0.00,WUHU216HW,2013-04-23 22:46:00,
2013-04-23 18:47:00,52.8,48.4,29.77,NE,45,2.9,2.9,85,0.00,,,0.00,WUHU216HW,2013-04-23 22:47:00,
2013-04-23 18:48:00,63.6,51.2,29.84,ENE,68,0.0,0.0,64,0.00,,,0.00,WUHU216HW,2013-04-23 22:48:00,
2013-04-23 18:49:00,52.8,48.4,29.77,North,0,0.0,2.9,85,0.00,,,0.00,WUHU216HW,2013-04-23 22:49:00,
2013-04-23 18:50:00,52.8,48.4,29.77,North,0,0.0,2.9,85,0.00,,,0.00,WUHU216HW,2013-04-23 22:50:00,
2013-04-23 18:51:00,52.8,48.4,29.77,ENE,68,0.0,2.9,85,0.00,,,0.00,WUHU216HW,2013-04-23 22:51:00,
2013-04-23 18:53:00,63.5,51.0,29.84,ENE,68,0.0,0.0,64,0.00,,,0.00,WUHU216HW,2013-04-23 22:53:00,
2013-04-23 18:54:00,53.0,48.6,29.77,ENE,68,0.0,2.9,85,0.00,,,0.00,WUHU216HW,2013-04-23 22:54:00,
2013-04-23 18:58:00,63.3,50.8,29.84,ENE,68,0.0,0.0,64,0.00,,,0.00,WUHU216HW,2013-04-23 22:58:00,
2013-04-23 19:03:00,63.3,50.8,29.84,ENE,68,0.0,0.0,64,0.00,,,0.00,WUHU216HW,2013-04-23 23:03:00,
2013-04-23 19:08:00,63.1,50.7,29.84,ENE,68,0.0,0.0,64,0.00,,,0.00,WUHU216HW,2013-04-23 23:08:00,
2013-04-23 19:13:00,63.1,50.7,29.84,ENE,68,0.0,0.0,64,0.00,,,0.00,WUHU216HW,2013-04-23 23:13:00,
2013-04-23 19:18:00,62.7,50.8,29.84,ENE,68,0.0,0.0,65,0.00,,,0.00,WUHU216HW,2013-04-23 23:18:00,
2013-04-23 19:23:00,62.7,50.8,29.84,ENE,68,0.0,0.0,65,0.00,,,0.00,WUHU216HW,2013-04-23 23:23:00,
2013-04-23 19:28:00,62.4,50.4,29.84,ENE,68,0.0,0.0,66,0.00,,,0.00,WUHU216HW,2013-04-23 23:28:00,
2013-04-23 19:33:00,62.2,50.7,29.84,ENE,68,0.0,0.0,66,0.00,,,0.00,WUHU216HW,2013-04-23 23:33:00,
2013-04-23 19:38:00,62.2,50.7,29.84,ENE,68,0.0,0.0,68,0.00,,,0.00,WUHU216HW,2013-04-23 23:38:00,
2013-04-23 19:43:00,61.8,51.2,29.84,ENE,68,0.0,0.0,68,0.00,,,0.00,WUHU216HW,2013-04-23 23:43:00,
2013-04-23 19:48:00,61.7,51.4,29.84,ENE,68,0.0,0.0,69,0.00,,,0.00,WUHU216HW,2013-04-23 23:48:00,
2013-04-23 19:53:00,61.5,51.3,29.84,ENE,68,0.0,0.0,69,0.00,,,0.00,WUHU216HW,2013-04-23 23:53:00,
2013-04-23 19:58:00,61.3,51.5,29.84,ENE,68,0.0,0.0,71,0.00,,,0.00,WUHU216HW,2013-04-23 23:58:00,
2013-04-23 20:03:00,60.8,51.4,29.84,ENE,68,0.0,0.0,71,0.00,,,0.00,WUHU216HW,2013-04-24 00:03:00,
2013-04-23 20:08:00,60.4,51.4,29.84,ENE,68,0.0,0.0,72,0.00,,,0.00,WUHU216HW,2013-04-24 00:08:00,
2013-04-23 20:13:00,60.4,51.4,29.84,ENE,68,0.0,0.0,72,0.00,,,0.00,WUHU216HW,2013-04-24 00:13:00,
2013-04-23 20:18:00,60.2,51.2,29.84,ENE,68,0.0,0.0,73,0.00,,,0.00,WUHU216HW,2013-04-24 00:18:00,
2013-04-23 20:23:00,60.0,51.4,29.84,ENE,68,0.0,0.0,73,0.00,,,0.00,WUHU216HW,2013-04-24 00:23:00,
2013-04-23 20:28:00,59.9,51.2,29.85,ENE,68,0.0,0.0,73,0.00,,,0.00,WUHU216HW,2013-04-24 00:28:00,
2013-04-23 20:33:00,59.7,51.0,29.85,ENE,68,0.0,0.0,74,0.00,,,0.00,WUHU216HW,2013-04-24 00:33:00,
2013-04-23 20:38:00,59.3,51.4,29.85,ENE,68,0.0,0.0,75,0.00,,,0.00,WUHU216HW,2013-04-24 00:38:00,
2013-04-23 20:43:00,59.0,51.0,29.85,ENE,68,0.0,0.0,75,0.00,,,0.00,WUHU216HW,2013-04-24 00:43:00,
2013-04-23 20:48:00,59.0,51.0,29.85,ENE,68,0.0,0.0,75,0.00,,,0.00,WUHU216HW,2013-04-24 00:48:00,
2013-04-23 20:53:00,59.0,51.0,29.86,ENE,68,0.0,0.0,75,0.00,,,0.00,WUHU216HW,2013-04-24 00:53:00,
2013-04-23 20:58:00,59.0,51.0,29.86,ENE,68,0.0,0.0,76,0.00,,,0.00,WUHU216HW,2013-04-24 00:58:00,
2013-04-23 21:03:00,58.2,51.0,29.87,ENE,68,0.0,0.0,77,0.00,,,0.00,WUHU216HW,2013-04-24 01:03:00,
2013-04-23 21:08:00,57.9,50.7,29.86,ENE,68,0.0,0.0,77,0.00,,,0.00,WUHU216HW,2013-04-24 01:08:00,
2013-04-23 21:13:00,57.9,50.7,29.86,ENE,68,0.0,0.0,77,0.00,,,0.00,WUHU216HW,2013-04-24 01:13:00,
2013-04-23 21:18:00,57.7,50.9,29.86,ENE,68,0.0,0.0,78,0.00,,,0.00,WUHU216HW,2013-04-24 01:18:00,
2013-04-23 21:23:00,57.5,50.7,29.87,ENE,68,0.0,0.0,78,0.00,,,0.00,WUHU216HW,2013-04-24 01:23:00,
2013-04-23 21:28:00,57.5,50.7,29.86,ENE,68,0.0,0.0,78,0.00,,,0.00,WUHU216HW,2013-04-24 01:28:00,
2013-04-23 21:33:00,57.0,50.5,29.86,ENE,68,0.0,0.0,79,0.00,,,0.00,WUHU216HW,2013-04-24 01:33:00,
2013-04-23 21:38:00,56.8,50.7,29.86,ENE,68,0.0,0.0,80,0.00,,,0.00,WUHU216HW,2013-04-24 01:38:00,
2013-04-23 21:43:00,56.6,50.5,29.86,ENE,68,0.0,0.0,80,0.00,,,0.00,WUHU216HW,2013-04-24 01:43:00,
2013-04-23 21:48:00,56.6,50.5,29.86,ENE,68,0.0,0.0,80,0.00,,,0.00,WUHU216HW,2013-04-24 01:48:00,
2013-04-23 21:53:00,56.4,50.3,29.86,ENE,68,0.0,0.0,80,0.00,,,0.00,WUHU216HW,2013-04-24 01:53:00,
2013-04-23 21:58:00,56.4,50.3,29.86,ENE,68,0.0,0.0,80,0.00,,,0.00,WUHU216HW,2013-04-24 01:58:00,
2013-04-23 22:03:00,56.1,50.3,29.86,ENE,68,0.0,0.0,81,0.00,,,0.00,WUHU216HW,2013-04-24 02:03:00,
2013-04-23 22:08:00,56.1,50.3,29.86,ENE,68,0.0,0.0,81,0.00,,,0.00,WUHU216HW,2013-04-24 02:08:00,
2013-04-23 22:13:00,55.9,50.4,29.86,ENE,68,0.0,0.0,82,0.00,,,0.00,WUHU216HW,2013-04-24 02:13:00,
2013-04-23 23:48:00,59.0,54.1,29.73,NNE,23,0.0,0.0,84,0.00,,,0.00,WUHU216HW,2013-04-24 03:48:00,
2013-04-23 23:49:00,59.0,54.1,29.72,NNE,23,0.0,0.0,84,0.00,,,0.00,WUHU216HW,2013-04-24 03:49:00,
2013-04-23 23:53:00,59.0,54.1,29.72,NNE,23,0.0,0.0,84,0.00,,,0.00,WUHU216HW,2013-04-24 03:53:00,
2013-04-23 23:54:00,59.0,54.1,29.72,NW,315,0.0,0.0,83,0.00,,,0.00,WUHU216HW,2013-04-24 03:54:00,
2013-04-23 23:55:00,59.0,54.1,29.72,NW,315,0.0,0.0,83,0.00,,,0.00,WUHU216HW,2013-04-24 03:55:00,
2013-04-23 23:56:00,59.0,54.1,29.72,North,0,0.0,0.0,84,0.00,,,0.00,WUHU216HW,2013-04-24 03:56:00,
2013-04-23 23:58:00,59.0,54.1,29.72,NE,45,0.0,0.0,84,0.00,,,0.00,WUHU216HW,2013-04-24 03:58:00,
2013-04-23 23:59:00,59.0,54.1,29.72,NE,45,0.0,0.0,84,0.00,,,0.00,WUHU216HW,2013-04-24 03:59:00,